sensor_id;sensor_type;location;lat;lon;timestamp;temperature;humidity
69382;DHT22;56560;50.692;12.844;2023-05-23T00:00:32;16.20;86.40
69382;DHT22;56560;50.692;12.844;2023-05-23T00:02:58;16.20;86.20
69382;DHT22;56560;50.692;12.844;2023-05-23T00:05:26;16.20;85.80
69382;DHT22;56560;50.692;12.844;2023-05-23T00:07:51;16.20;85.10
69382;DHT22;56560;50.692;12.844;2023-05-23T00:10:17;16.10;85.70
69382;DHT22;56560;50.692;12.844;2023-05-23T00:12:43;16.00;87.10
69382;DHT22;56560;50.692;12.844;2023-05-23T00:15:09;15.90;87.10
69382;DHT22;56560;50.692;12.844;2023-05-23T00:17:35;16.00;87.70
69382;DHT22;56560;50.692;12.844;2023-05-23T00:20:02;16.00;87.80
69382;DHT22;56560;50.692;12.844;2023-05-23T00:22:28;16.00;86.70
69382;DHT22;56560;50.692;12.844;2023-05-23T00:24:53;16.00;86.80
69382;DHT22;56560;50.692;12.844;2023-05-23T00:27:22;16.00;87.00
69382;DHT22;56560;50.692;12.844;2023-05-23T00:29:48;16.00;86.50
69382;DHT22;56560;50.692;12.844;2023-05-23T00:32:14;16.00;85.90
69382;DHT22;56560;50.692;12.844;2023-05-23T00:34:40;15.90;85.10
69382;DHT22;56560;50.692;12.844;2023-05-23T00:37:05;15.80;84.40
69382;DHT22;56560;50.692;12.844;2023-05-23T00:39:32;15.80;84.30
69382;DHT22;56560;50.692;12.844;2023-05-23T00:41:58;15.70;84.90
69382;DHT22;56560;50.692;12.844;2023-05-23T00:44:28;15.60;85.70
69382;DHT22;56560;50.692;12.844;2023-05-23T00:46:55;15.50;86.50
69382;DHT22;56560;50.692;12.844;2023-05-23T00:49:22;15.40;87.30
69382;DHT22;56560;50.692;12.844;2023-05-23T00:51:48;15.40;87.30
69382;DHT22;56560;50.692;12.844;2023-05-23T00:54:16;15.40;86.50
69382;DHT22;56560;50.692;12.844;2023-05-23T00:56:42;15.30;86.40
69382;DHT22;56560;50.692;12.844;2023-05-23T00:59:08;15.40;87.50
69382;DHT22;56560;50.692;12.844;2023-05-23T01:01:34;15.40;86.90
69382;DHT22;56560;50.692;12.844;2023-05-23T01:04:02;15.40;87.50
69382;DHT22;56560;50.692;12.844;2023-05-23T01:06:29;15.30;89.20
69382;DHT22;56560;50.692;12.844;2023-05-23T01:08:55;15.30;88.90
69382;DHT22;56560;50.692;12.844;2023-05-23T01:14:11;15.30;90.00
69382;DHT22;56560;50.692;12.844;2023-05-23T01:16:45;15.30;89.50
69382;DHT22;56560;50.692;12.844;2023-05-23T01:22:10;15.30;90.10
69382;DHT22;56560;50.692;12.844;2023-05-23T01:25:24;15.40;89.90
69382;DHT22;56560;50.692;12.844;2023-05-23T01:27:56;15.40;90.40
69382;DHT22;56560;50.692;12.844;2023-05-23T01:30:23;15.40;90.70
69382;DHT22;56560;50.692;12.844;2023-05-23T01:32:53;15.40;90.20
69382;DHT22;56560;50.692;12.844;2023-05-23T01:35:24;15.50;89.90
69382;DHT22;56560;50.692;12.844;2023-05-23T01:37:56;15.50;90.30
69382;DHT22;56560;50.692;12.844;2023-05-23T01:40:25;15.50;89.90
69382;DHT22;56560;50.692;12.844;2023-05-23T01:42:52;15.50;89.80
69382;DHT22;56560;50.692;12.844;2023-05-23T01:45:19;15.40;90.00
69382;DHT22;56560;50.692;12.844;2023-05-23T01:47:46;15.40;90.40
69382;DHT22;56560;50.692;12.844;2023-05-23T01:50:13;15.40;90.80
69382;DHT22;56560;50.692;12.844;2023-05-23T01:52:40;15.40;89.60
69382;DHT22;56560;50.692;12.844;2023-05-23T01:55:06;15.30;89.50
69382;DHT22;56560;50.692;12.844;2023-05-23T01:57:35;15.20;90.50
69382;DHT22;56560;50.692;12.844;2023-05-23T02:00:01;15.10;90.90
69382;DHT22;56560;50.692;12.844;2023-05-23T02:02:27;15.10;92.20
69382;DHT22;56560;50.692;12.844;2023-05-23T02:04:52;15.00;92.80
69382;DHT22;56560;50.692;12.844;2023-05-23T02:07:18;15.10;92.90
69382;DHT22;56560;50.692;12.844;2023-05-23T02:09:48;15.10;92.30
69382;DHT22;56560;50.692;12.844;2023-05-23T02:12:13;15.10;92.40
69382;DHT22;56560;50.692;12.844;2023-05-23T02:14:39;15.10;92.20
69382;DHT22;56560;50.692;12.844;2023-05-23T02:17:07;15.00;92.00
69382;DHT22;56560;50.692;12.844;2023-05-23T02:19:34;15.00;91.90
69382;DHT22;56560;50.692;12.844;2023-05-23T02:22:00;15.00;91.80
69382;DHT22;56560;50.692;12.844;2023-05-23T02:24:26;14.90;92.00
69382;DHT22;56560;50.692;12.844;2023-05-23T02:26:51;14.90;92.10
69382;DHT22;56560;50.692;12.844;2023-05-23T02:29:17;14.90;92.10
69382;DHT22;56560;50.692;12.844;2023-05-23T02:31:43;15.00;92.20
69382;DHT22;56560;50.692;12.844;2023-05-23T02:34:08;15.00;92.00
69382;DHT22;56560;50.692;12.844;2023-05-23T02:36:34;15.10;91.70
69382;DHT22;56560;50.692;12.844;2023-05-23T02:39:02;15.10;91.00
69382;DHT22;56560;50.692;12.844;2023-05-23T02:41:27;15.10;90.90
69382;DHT22;56560;50.692;12.844;2023-05-23T02:43:53;15.10;90.90
69382;DHT22;56560;50.692;12.844;2023-05-23T02:46:19;15.10;91.00
69382;DHT22;56560;50.692;12.844;2023-05-23T02:48:45;15.10;90.50
69382;DHT22;56560;50.692;12.844;2023-05-23T02:51:10;15.10;90.70
69382;DHT22;56560;50.692;12.844;2023-05-23T02:53:38;15.10;90.10
69382;DHT22;56560;50.692;12.844;2023-05-23T02:56:04;15.10;90.50
69382;DHT22;56560;50.692;12.844;2023-05-23T02:58:30;15.10;90.50
69382;DHT22;56560;50.692;12.844;2023-05-23T03:00:56;15.10;90.30
69382;DHT22;56560;50.692;12.844;2023-05-23T03:03:22;15.10;90.30
69382;DHT22;56560;50.692;12.844;2023-05-23T03:05:47;15.00;89.90
69382;DHT22;56560;50.692;12.844;2023-05-23T03:08:13;15.00;90.60
69382;DHT22;56560;50.692;12.844;2023-05-23T03:10:39;14.90;90.80
69382;DHT22;56560;50.692;12.844;2023-05-23T03:13:04;14.90;91.20
69382;DHT22;56560;50.692;12.844;2023-05-23T03:15:30;14.90;91.40
69382;DHT22;56560;50.692;12.844;2023-05-23T03:17:56;14.90;90.60
69382;DHT22;56560;50.692;12.844;2023-05-23T03:20:21;15.00;89.90
69382;DHT22;56560;50.692;12.844;2023-05-23T03:22:47;15.00;89.70
69382;DHT22;56560;50.692;12.844;2023-05-23T03:25:14;15.10;90.10
69382;DHT22;56560;50.692;12.844;2023-05-23T03:27:41;15.10;89.70
69382;DHT22;56560;50.692;12.844;2023-05-23T03:30:07;15.10;89.40
69382;DHT22;56560;50.692;12.844;2023-05-23T03:32:32;15.10;89.40
69382;DHT22;56560;50.692;12.844;2023-05-23T03:34:58;15.10;89.30
69382;DHT22;56560;50.692;12.844;2023-05-23T03:37:24;15.10;89.50
69382;DHT22;56560;50.692;12.844;2023-05-23T03:39:49;15.20;89.00
69382;DHT22;56560;50.692;12.844;2023-05-23T03:42:16;15.20;88.80
69382;DHT22;56560;50.692;12.844;2023-05-23T03:44:41;15.20;89.00
69382;DHT22;56560;50.692;12.844;2023-05-23T03:47:07;15.20;88.80
69382;DHT22;56560;50.692;12.844;2023-05-23T03:49:33;15.30;88.40
69382;DHT22;56560;50.692;12.844;2023-05-23T03:51:58;15.30;88.20
69382;DHT22;56560;50.692;12.844;2023-05-23T03:54:24;15.30;88.10
69382;DHT22;56560;50.692;12.844;2023-05-23T03:56:50;15.30;88.00
69382;DHT22;56560;50.692;12.844;2023-05-23T03:59:16;15.30;88.40
69382;DHT22;56560;50.692;12.844;2023-05-23T04:01:42;15.40;88.40
69382;DHT22;56560;50.692;12.844;2023-05-23T04:04:08;15.40;88.30
69382;DHT22;56560;50.692;12.844;2023-05-23T04:06:33;15.50;88.10
69382;DHT22;56560;50.692;12.844;2023-05-23T04:08:59;15.50;88.10
69382;DHT22;56560;50.692;12.844;2023-05-23T04:11:25;15.50;88.10
69382;DHT22;56560;50.692;12.844;2023-05-23T04:13:51;15.50;88.20
69382;DHT22;56560;50.692;12.844;2023-05-23T04:16:17;15.60;87.90
69382;DHT22;56560;50.692;12.844;2023-05-23T04:18:43;15.70;87.90
69382;DHT22;56560;50.692;12.844;2023-05-23T04:21:11;15.80;87.70
69382;DHT22;56560;50.692;12.844;2023-05-23T04:23:37;15.90;87.20
69382;DHT22;56560;50.692;12.844;2023-05-23T04:26:03;16.00;87.10
69382;DHT22;56560;50.692;12.844;2023-05-23T04:28:30;16.00;87.10
69382;DHT22;56560;50.692;12.844;2023-05-23T04:30:56;16.10;86.80
69382;DHT22;56560;50.692;12.844;2023-05-23T04:33:23;16.10;86.80
69382;DHT22;56560;50.692;12.844;2023-05-23T04:35:49;16.20;86.80
69382;DHT22;56560;50.692;12.844;2023-05-23T04:38:15;16.20;86.50
69382;DHT22;56560;50.692;12.844;2023-05-23T04:40:41;16.30;86.80
69382;DHT22;56560;50.692;12.844;2023-05-23T04:43:07;16.30;85.40
69382;DHT22;56560;50.692;12.844;2023-05-23T04:45:34;16.30;85.30
69382;DHT22;56560;50.692;12.844;2023-05-23T04:48:01;16.40;85.00
69382;DHT22;56560;50.692;12.844;2023-05-23T04:50:27;16.40;85.00
69382;DHT22;56560;50.692;12.844;2023-05-23T04:52:56;16.40;85.60
69382;DHT22;56560;50.692;12.844;2023-05-23T04:55:22;16.40;85.60
69382;DHT22;56560;50.692;12.844;2023-05-23T04:57:48;16.50;85.80
69382;DHT22;56560;50.692;12.844;2023-05-23T05:00:14;16.50;85.30
69382;DHT22;56560;50.692;12.844;2023-05-23T05:02:40;16.50;85.30
69382;DHT22;56560;50.692;12.844;2023-05-23T05:05:06;16.50;86.10
69382;DHT22;56560;50.692;12.844;2023-05-23T05:07:32;16.70;85.90
69382;DHT22;56560;50.692;12.844;2023-05-23T05:10:00;16.80;85.80
69382;DHT22;56560;50.692;12.844;2023-05-23T05:12:25;16.90;85.00
69382;DHT22;56560;50.692;12.844;2023-05-23T05:14:51;17.10;84.80
69382;DHT22;56560;50.692;12.844;2023-05-23T05:17:17;17.20;84.40
69382;DHT22;56560;50.692;12.844;2023-05-23T05:19:44;17.40;83.00
69382;DHT22;56560;50.692;12.844;2023-05-23T05:22:10;17.60;82.60
69382;DHT22;56560;50.692;12.844;2023-05-23T05:24:36;17.70;82.50
69382;DHT22;56560;50.692;12.844;2023-05-23T05:27:02;17.70;82.10
69382;DHT22;56560;50.692;12.844;2023-05-23T05:29:28;17.80;81.60
69382;DHT22;56560;50.692;12.844;2023-05-23T05:31:53;17.70;80.80
69382;DHT22;56560;50.692;12.844;2023-05-23T05:34:19;17.70;80.50
69382;DHT22;56560;50.692;12.844;2023-05-23T05:36:45;17.60;80.20
69382;DHT22;56560;50.692;12.844;2023-05-23T05:39:13;17.60;80.10
69382;DHT22;56560;50.692;12.844;2023-05-23T05:41:39;17.40;81.80
69382;DHT22;56560;50.692;12.844;2023-05-23T05:44:06;17.40;81.50
69382;DHT22;56560;50.692;12.844;2023-05-23T05:46:31;17.30;81.20
69382;DHT22;56560;50.692;12.844;2023-05-23T05:48:57;17.30;81.90
69382;DHT22;56560;50.692;12.844;2023-05-23T05:51:23;17.40;81.30
69382;DHT22;56560;50.692;12.844;2023-05-23T05:53:48;17.50;81.10
69382;DHT22;56560;50.692;12.844;2023-05-23T05:56:14;17.70;81.30
69382;DHT22;56560;50.692;12.844;2023-05-23T05:58:40;17.90;81.10
69382;DHT22;56560;50.692;12.844;2023-05-23T06:01:05;18.10;78.60
69382;DHT22;56560;50.692;12.844;2023-05-23T06:03:32;18.40;78.90
69382;DHT22;56560;50.692;12.844;2023-05-23T06:05:58;18.60;77.90
69382;DHT22;56560;50.692;12.844;2023-05-23T06:08:24;18.60;76.90
69382;DHT22;56560;50.692;12.844;2023-05-23T06:10:49;18.40;76.20
69382;DHT22;56560;50.692;12.844;2023-05-23T06:13:15;18.00;76.80
69382;DHT22;56560;50.692;12.844;2023-05-23T06:15:42;17.60;78.00
69382;DHT22;56560;50.692;12.844;2023-05-23T06:18:08;17.30;79.10
69382;DHT22;56560;50.692;12.844;2023-05-23T06:20:33;17.10;80.40
69382;DHT22;56560;50.692;12.844;2023-05-23T06:22:59;17.00;80.70
69382;DHT22;56560;50.692;12.844;2023-05-23T06:25:26;16.90;81.20
69382;DHT22;56560;50.692;12.844;2023-05-23T06:27:52;16.80;81.60
69382;DHT22;56560;50.692;12.844;2023-05-23T06:30:17;16.80;81.60
69382;DHT22;56560;50.692;12.844;2023-05-23T06:32:43;16.80;81.40
69382;DHT22;56560;50.692;12.844;2023-05-23T06:35:09;16.90;81.60
69382;DHT22;56560;50.692;12.844;2023-05-23T06:37:34;17.00;81.20
69382;DHT22;56560;50.692;12.844;2023-05-23T06:40:00;17.10;81.30
69382;DHT22;56560;50.692;12.844;2023-05-23T06:42:26;17.20;81.10
69382;DHT22;56560;50.692;12.844;2023-05-23T06:44:52;17.40;81.00
69382;DHT22;56560;50.692;12.844;2023-05-23T06:47:17;17.50;80.20
69382;DHT22;56560;50.692;12.844;2023-05-23T06:49:43;17.60;79.10
69382;DHT22;56560;50.692;12.844;2023-05-23T06:52:10;17.40;79.60
69382;DHT22;56560;50.692;12.844;2023-05-23T06:54:35;17.20;81.00
69382;DHT22;56560;50.692;12.844;2023-05-23T06:57:01;17.20;81.50
69382;DHT22;56560;50.692;12.844;2023-05-23T06:59:29;17.20;80.20
69382;DHT22;56560;50.692;12.844;2023-05-23T07:02:00;17.20;79.80
69382;DHT22;56560;50.692;12.844;2023-05-23T07:04:26;17.10;80.40
69382;DHT22;56560;50.692;12.844;2023-05-23T07:06:52;17.00;81.00
69382;DHT22;56560;50.692;12.844;2023-05-23T07:09:18;17.00;81.60
69382;DHT22;56560;50.692;12.844;2023-05-23T07:11:43;16.90;81.70
69382;DHT22;56560;50.692;12.844;2023-05-23T07:14:09;16.80;82.10
69382;DHT22;56560;50.692;12.844;2023-05-23T07:16:35;16.90;82.00
69382;DHT22;56560;50.692;12.844;2023-05-23T07:19:01;16.90;82.20
69382;DHT22;56560;50.692;12.844;2023-05-23T07:21:27;16.90;81.30
69382;DHT22;56560;50.692;12.844;2023-05-23T07:23:53;16.90;81.20
69382;DHT22;56560;50.692;12.844;2023-05-23T07:26:18;16.90;82.00
69382;DHT22;56560;50.692;12.844;2023-05-23T07:28:44;16.80;82.10
69382;DHT22;56560;50.692;12.844;2023-05-23T07:31:10;16.90;82.30
69382;DHT22;56560;50.692;12.844;2023-05-23T07:33:36;17.10;82.30
69382;DHT22;56560;50.692;12.844;2023-05-23T07:36:02;17.20;80.90
69382;DHT22;56560;50.692;12.844;2023-05-23T07:38:27;17.10;80.00
69382;DHT22;56560;50.692;12.844;2023-05-23T07:40:53;16.90;81.40
69382;DHT22;56560;50.692;12.844;2023-05-23T07:43:19;17.00;81.50
69382;DHT22;56560;50.692;12.844;2023-05-23T07:45:44;17.00;80.50
69382;DHT22;56560;50.692;12.844;2023-05-23T07:48:10;16.90;80.50
69382;DHT22;56560;50.692;12.844;2023-05-23T07:50:38;16.80;81.30
69382;DHT22;56560;50.692;12.844;2023-05-23T07:53:04;16.70;81.60
69382;DHT22;56560;50.692;12.844;2023-05-23T07:55:30;16.80;81.00
69382;DHT22;56560;50.692;12.844;2023-05-23T07:57:56;17.00;81.30
69382;DHT22;56560;50.692;12.844;2023-05-23T08:00:22;17.00;80.70
69382;DHT22;56560;50.692;12.844;2023-05-23T08:02:48;17.10;80.60
69382;DHT22;56560;50.692;12.844;2023-05-23T08:05:14;16.90;80.60
69382;DHT22;56560;50.692;12.844;2023-05-23T08:07:40;16.80;81.20
69382;DHT22;56560;50.692;12.844;2023-05-23T08:10:06;16.90;81.00
69382;DHT22;56560;50.692;12.844;2023-05-23T08:12:31;16.90;81.00
69382;DHT22;56560;50.692;12.844;2023-05-23T08:14:58;16.90;80.50
69382;DHT22;56560;50.692;12.844;2023-05-23T08:17:23;16.90;80.30
69382;DHT22;56560;50.692;12.844;2023-05-23T08:19:49;16.90;80.70
69382;DHT22;56560;50.692;12.844;2023-05-23T08:22:15;16.90;80.70
69382;DHT22;56560;50.692;12.844;2023-05-23T08:24:40;17.00;81.20
69382;DHT22;56560;50.692;12.844;2023-05-23T08:27:06;17.10;80.00
69382;DHT22;56560;50.692;12.844;2023-05-23T08:29:32;17.10;80.60
69382;DHT22;56560;50.692;12.844;2023-05-23T08:31:59;17.20;79.60
69382;DHT22;56560;50.692;12.844;2023-05-23T08:34:25;17.20;80.20
69382;DHT22;56560;50.692;12.844;2023-05-23T08:36:50;17.30;79.60
69382;DHT22;56560;50.692;12.844;2023-05-23T08:39:17;17.40;79.40
69382;DHT22;56560;50.692;12.844;2023-05-23T08:41:43;17.60;77.90
69382;DHT22;56560;50.692;12.844;2023-05-23T08:44:12;17.80;77.80
69382;DHT22;56560;50.692;12.844;2023-05-23T08:46:49;17.90;78.20
69382;DHT22;56560;50.692;12.844;2023-05-23T08:49:23;17.80;77.30
69382;DHT22;56560;50.692;12.844;2023-05-23T08:51:59;17.60;78.30
69382;DHT22;56560;50.692;12.844;2023-05-23T08:54:34;17.30;77.80
69382;DHT22;56560;50.692;12.844;2023-05-23T09:00:01;16.50;79.40
69382;DHT22;56560;50.692;12.844;2023-05-23T09:02:35;16.20;80.50
69382;DHT22;56560;50.692;12.844;2023-05-23T09:05:01;16.00;81.30
69382;DHT22;56560;50.692;12.844;2023-05-23T09:07:37;15.80;81.20
69382;DHT22;56560;50.692;12.844;2023-05-23T09:10:35;15.60;82.00
69382;DHT22;56560;50.692;12.844;2023-05-23T09:13:00;15.50;81.90
69382;DHT22;56560;50.692;12.844;2023-05-23T09:15:26;15.50;82.00
69382;DHT22;56560;50.692;12.844;2023-05-23T09:17:56;15.50;81.30
69382;DHT22;56560;50.692;12.844;2023-05-23T09:20:23;15.50;81.90
69382;DHT22;56560;50.692;12.844;2023-05-23T09:22:49;15.70;81.30
69382;DHT22;56560;50.692;12.844;2023-05-23T09:25:15;16.00;79.70
69382;DHT22;56560;50.692;12.844;2023-05-23T09:27:42;16.20;78.70
69382;DHT22;56560;50.692;12.844;2023-05-23T09:30:09;16.30;79.20
69382;DHT22;56560;50.692;12.844;2023-05-23T09:32:35;16.50;78.70
69382;DHT22;56560;50.692;12.844;2023-05-23T09:35:03;16.60;78.60
69382;DHT22;56560;50.692;12.844;2023-05-23T09:37:34;16.80;76.50
69382;DHT22;56560;50.692;12.844;2023-05-23T09:40:08;16.80;76.60
69382;DHT22;56560;50.692;12.844;2023-05-23T09:42:44;16.80;76.90
69382;DHT22;56560;50.692;12.844;2023-05-23T09:45:14;16.70;77.80
69382;DHT22;56560;50.692;12.844;2023-05-23T09:47:50;16.80;77.30
69382;DHT22;56560;50.692;12.844;2023-05-23T09:50:16;16.90;76.80
69382;DHT22;56560;50.692;12.844;2023-05-23T09:52:42;16.90;77.50
69382;DHT22;56560;50.692;12.844;2023-05-23T09:55:08;17.00;76.60
69382;DHT22;56560;50.692;12.844;2023-05-23T09:57:34;17.20;75.70
69382;DHT22;56560;50.692;12.844;2023-05-23T10:00:03;17.30;75.50
69382;DHT22;56560;50.692;12.844;2023-05-23T10:05:35;17.40;74.10
69382;DHT22;56560;50.692;12.844;2023-05-23T10:08:09;17.30;74.50
69382;DHT22;56560;50.692;12.844;2023-05-23T10:13:25;17.20;75.10
69382;DHT22;56560;50.692;12.844;2023-05-23T10:16:07;17.30;76.20
69382;DHT22;56560;50.692;12.844;2023-05-23T10:18:38;17.30;74.50
69382;DHT22;56560;50.692;12.844;2023-05-23T10:21:11;17.20;74.60
69382;DHT22;56560;50.692;12.844;2023-05-23T10:23:37;17.00;74.10
69382;DHT22;56560;50.692;12.844;2023-05-23T10:26:04;16.90;74.80
69382;DHT22;56560;50.692;12.844;2023-05-23T10:28:33;17.00;75.90
69382;DHT22;56560;50.692;12.844;2023-05-23T10:30:59;17.10;76.30
69382;DHT22;56560;50.692;12.844;2023-05-23T10:33:31;17.20;76.60
69382;DHT22;56560;50.692;12.844;2023-05-23T10:36:24;17.40;74.50
69382;DHT22;56560;50.692;12.844;2023-05-23T10:39:03;17.60;73.30
69382;DHT22;56560;50.692;12.844;2023-05-23T10:41:52;18.10;72.30
69382;DHT22;56560;50.692;12.844;2023-05-23T10:44:38;18.70;69.60
69382;DHT22;56560;50.692;12.844;2023-05-23T10:47:04;19.10;67.10
69382;DHT22;56560;50.692;12.844;2023-05-23T10:49:37;19.30;65.40
69382;DHT22;56560;50.692;12.844;2023-05-23T10:52:03;19.60;64.90
69382;DHT22;56560;50.692;12.844;2023-05-23T10:54:34;19.70;64.20
69382;DHT22;56560;50.692;12.844;2023-05-23T10:57:04;20.10;62.60
69382;DHT22;56560;50.692;12.844;2023-05-23T10:59:30;20.60;61.40
69382;DHT22;56560;50.692;12.844;2023-05-23T11:01:56;20.70;60.50
69382;DHT22;56560;50.692;12.844;2023-05-23T11:04:28;20.90;59.90
69382;DHT22;56560;50.692;12.844;2023-05-23T11:06:54;20.70;59.60
69382;DHT22;56560;50.692;12.844;2023-05-23T11:09:21;20.20;60.70
69382;DHT22;56560;50.692;12.844;2023-05-23T11:19:58;19.20;62.70
69382;DHT22;56560;50.692;12.844;2023-05-23T11:22:28;19.30;62.00
69382;DHT22;56560;50.692;12.844;2023-05-23T11:24:56;19.30;62.60
69382;DHT22;56560;50.692;12.844;2023-05-23T11:27:33;19.10;62.50
69382;DHT22;56560;50.692;12.844;2023-05-23T11:30:17;19.00;61.90
69382;DHT22;56560;50.692;12.844;2023-05-23T11:32:52;18.80;62.60
69382;DHT22;56560;50.692;12.844;2023-05-23T11:35:20;18.90;62.90
69382;DHT22;56560;50.692;12.844;2023-05-23T11:37:46;19.20;61.70
69382;DHT22;56560;50.692;12.844;2023-05-23T11:42:50;19.20;62.70
69382;DHT22;56560;50.692;12.844;2023-05-23T11:45:18;18.80;64.40
69382;DHT22;56560;50.692;12.844;2023-05-23T11:47:44;18.20;64.40
69382;DHT22;56560;50.692;12.844;2023-05-23T11:50:10;17.90;65.00
69382;DHT22;56560;50.692;12.844;2023-05-23T11:52:35;17.70;67.00
69382;DHT22;56560;50.692;12.844;2023-05-23T11:55:01;17.50;66.60
69382;DHT22;56560;50.692;12.844;2023-05-23T11:57:27;17.50;66.60
69382;DHT22;56560;50.692;12.844;2023-05-23T11:59:53;17.60;66.40
69382;DHT22;56560;50.692;12.844;2023-05-23T12:02:20;17.80;66.60
69382;DHT22;56560;50.692;12.844;2023-05-23T12:04:48;18.00;66.00
69382;DHT22;56560;50.692;12.844;2023-05-23T12:07:13;18.00;66.70
69382;DHT22;56560;50.692;12.844;2023-05-23T12:09:43;17.90;66.90
69382;DHT22;56560;50.692;12.844;2023-05-23T12:12:11;17.80;66.40
69382;DHT22;56560;50.692;12.844;2023-05-23T12:14:38;17.70;66.90
69382;DHT22;56560;50.692;12.844;2023-05-23T12:17:12;17.70;67.30
69382;DHT22;56560;50.692;12.844;2023-05-23T12:19:38;17.70;67.40
69382;DHT22;56560;50.692;12.844;2023-05-23T12:22:07;17.70;67.70
69382;DHT22;56560;50.692;12.844;2023-05-23T12:24:33;17.70;67.30
69382;DHT22;56560;50.692;12.844;2023-05-23T12:27:00;17.60;68.10
69382;DHT22;56560;50.692;12.844;2023-05-23T12:29:33;17.40;68.40
69382;DHT22;56560;50.692;12.844;2023-05-23T12:32:00;17.10;69.60
69382;DHT22;56560;50.692;12.844;2023-05-23T12:34:27;16.90;70.20
69382;DHT22;56560;50.692;12.844;2023-05-23T12:37:00;16.60;71.60
69382;DHT22;56560;50.692;12.844;2023-05-23T12:39:30;16.50;72.70
69382;DHT22;56560;50.692;12.844;2023-05-23T12:42:08;16.70;73.00
69382;DHT22;56560;50.692;12.844;2023-05-23T12:44:34;17.20;70.60
69382;DHT22;56560;50.692;12.844;2023-05-23T12:47:00;17.70;69.50
69382;DHT22;56560;50.692;12.844;2023-05-23T12:49:25;18.00;68.20
69382;DHT22;56560;50.692;12.844;2023-05-23T12:51:51;17.90;68.40
69382;DHT22;56560;50.692;12.844;2023-05-23T12:54:17;17.60;69.00
69382;DHT22;56560;50.692;12.844;2023-05-23T12:56:43;17.40;69.90
69382;DHT22;56560;50.692;12.844;2023-05-23T12:59:08;17.20;70.30
69382;DHT22;56560;50.692;12.844;2023-05-23T13:01:34;17.10;71.10
69382;DHT22;56560;50.692;12.844;2023-05-23T13:04:00;16.90;71.70
69382;DHT22;56560;50.692;12.844;2023-05-23T13:06:27;16.80;71.90
69382;DHT22;56560;50.692;12.844;2023-05-23T13:08:53;17.00;71.70
69382;DHT22;56560;50.692;12.844;2023-05-23T13:11:22;17.30;70.80
69382;DHT22;56560;50.692;12.844;2023-05-23T13:13:49;17.30;70.40
69382;DHT22;56560;50.692;12.844;2023-05-23T13:16:15;17.20;70.90
69382;DHT22;56560;50.692;12.844;2023-05-23T13:18:41;17.00;71.50
69382;DHT22;56560;50.692;12.844;2023-05-23T13:21:07;16.90;72.10
69382;DHT22;56560;50.692;12.844;2023-05-23T13:23:33;16.90;72.20
69382;DHT22;56560;50.692;12.844;2023-05-23T13:26:00;16.90;72.30
69382;DHT22;56560;50.692;12.844;2023-05-23T13:28:26;16.90;71.70
69382;DHT22;56560;50.692;12.844;2023-05-23T13:30:51;16.80;72.40
69382;DHT22;56560;50.692;12.844;2023-05-23T13:33:17;16.70;73.30
69382;DHT22;56560;50.692;12.844;2023-05-23T13:35:43;16.50;73.50
69382;DHT22;56560;50.692;12.844;2023-05-23T13:38:09;16.30;74.20
69382;DHT22;56560;50.692;12.844;2023-05-23T13:40:35;16.00;76.50
69382;DHT22;56560;50.692;12.844;2023-05-23T13:43:00;15.70;78.10
69382;DHT22;56560;50.692;12.844;2023-05-23T13:45:26;15.40;79.30
69382;DHT22;56560;50.692;12.844;2023-05-23T13:47:51;15.30;80.90
69382;DHT22;56560;50.692;12.844;2023-05-23T13:50:17;15.10;81.60
69382;DHT22;56560;50.692;12.844;2023-05-23T13:52:43;15.20;82.10
69382;DHT22;56560;50.692;12.844;2023-05-23T13:55:09;15.20;81.60
69382;DHT22;56560;50.692;12.844;2023-05-23T13:57:35;15.30;82.40
69382;DHT22;56560;50.692;12.844;2023-05-23T14:00:01;15.20;81.80
69382;DHT22;56560;50.692;12.844;2023-05-23T14:02:28;15.30;81.70
69382;DHT22;56560;50.692;12.844;2023-05-23T14:04:56;15.20;82.20
69382;DHT22;56560;50.692;12.844;2023-05-23T14:07:22;15.10;82.40
69382;DHT22;56560;50.692;12.844;2023-05-23T14:09:48;15.00;82.80
69382;DHT22;56560;50.692;12.844;2023-05-23T14:12:13;14.80;82.30
69382;DHT22;56560;50.692;12.844;2023-05-23T14:14:39;14.60;83.40
69382;DHT22;56560;50.692;12.844;2023-05-23T14:17:05;14.60;84.30
69382;DHT22;56560;50.692;12.844;2023-05-23T14:19:30;14.60;84.90
69382;DHT22;56560;50.692;12.844;2023-05-23T14:21:56;14.70;84.10
69382;DHT22;56560;50.692;12.844;2023-05-23T14:24:22;14.80;84.30
69382;DHT22;56560;50.692;12.844;2023-05-23T14:26:47;14.90;83.50
69382;DHT22;56560;50.692;12.844;2023-05-23T14:29:14;14.80;83.80
69382;DHT22;56560;50.692;12.844;2023-05-23T14:31:40;14.70;84.60
69382;DHT22;56560;50.692;12.844;2023-05-23T14:34:06;14.70;84.50
69382;DHT22;56560;50.692;12.844;2023-05-23T14:36:31;14.70;84.70
69382;DHT22;56560;50.692;12.844;2023-05-23T14:38:57;14.70;85.70
69382;DHT22;56560;50.692;12.844;2023-05-23T14:41:23;14.70;85.10
69382;DHT22;56560;50.692;12.844;2023-05-23T14:43:48;14.50;85.70
69382;DHT22;56560;50.692;12.844;2023-05-23T14:46:16;14.30;85.30
69382;DHT22;56560;50.692;12.844;2023-05-23T14:48:42;14.10;86.20
69382;DHT22;56560;50.692;12.844;2023-05-23T14:51:08;14.00;86.40
69382;DHT22;56560;50.692;12.844;2023-05-23T14:53:34;13.90;87.60
69382;DHT22;56560;50.692;12.844;2023-05-23T14:56:00;14.00;88.30
69382;DHT22;56560;50.692;12.844;2023-05-23T14:58:26;14.00;87.80
69382;DHT22;56560;50.692;12.844;2023-05-23T15:00:51;13.90;87.40
69382;DHT22;56560;50.692;12.844;2023-05-23T15:03:17;14.00;88.00
69382;DHT22;56560;50.692;12.844;2023-05-23T15:05:43;14.10;88.60
69382;DHT22;56560;50.692;12.844;2023-05-23T15:08:10;14.10;86.90
69382;DHT22;56560;50.692;12.844;2023-05-23T15:10:36;14.20;87.50
69382;DHT22;56560;50.692;12.844;2023-05-23T15:13:01;14.30;87.30
69382;DHT22;56560;50.692;12.844;2023-05-23T15:15:30;14.30;86.40
69382;DHT22;56560;50.692;12.844;2023-05-23T15:18:05;14.10;86.50
69382;DHT22;56560;50.692;12.844;2023-05-23T15:20:34;14.20;87.60
69382;DHT22;56560;50.692;12.844;2023-05-23T15:23:00;14.10;86.60
69382;DHT22;56560;50.692;12.844;2023-05-23T15:25:26;14.10;86.80
69382;DHT22;56560;50.692;12.844;2023-05-23T15:27:52;14.00;85.60
69382;DHT22;56560;50.692;12.844;2023-05-23T15:30:18;13.90;85.60
69382;DHT22;56560;50.692;12.844;2023-05-23T15:32:44;13.80;86.00
69382;DHT22;56560;50.692;12.844;2023-05-23T15:35:09;13.70;87.50
69382;DHT22;56560;50.692;12.844;2023-05-23T15:37:35;13.70;87.80
69382;DHT22;56560;50.692;12.844;2023-05-23T15:40:01;13.60;87.30